Blue Anchor, New Jersey
Current Conditions -  °F | °C
As of 8:54 AM on Friday 28 Nov 2014 (Local Time) from KACY Reporting Station
Scattered Clouds Scattered Clouds  
Wind Chill: 25°   Ceiling: Unl
Heat Index: 34°   Visibility: 10mi
Dew Point: 25°   Wind: 14mph
Humidity: 70%   Direction: 300°WNW
Pressure: 30.21"   Gusts: NA
Location:  39.637°N, 74.7602°W
Report Text: KACY 281354Z 30012KT 10SM SCT055 01/M04 A3021 RMK AO2 SLP231 T00111039
Loading
Personal Weather Stations






























Interactive Weather Map New forecast layout! Learn more

10-Day Weather Forecast

Advertisements
Track Severe Weather on mobile